sensor_id;sensor_type;location;lat;lon;timestamp;P1;durP1;ratioP1;P2;durP2;ratioP2
13801;SDS011;6972;51.518;6.918;2023-04-03T04:57:08;6.47;;;2.27;;
13801;SDS011;6972;51.518;6.918;2023-04-03T04:59:35;4.57;;;2.50;;
13801;SDS011;6972;51.518;6.918;2023-04-03T05:30:32;10.13;;;2.83;;
13801;SDS011;6972;51.518;6.918;2023-04-03T05:32:58;5.93;;;2.60;;
13801;SDS011;6972;51.518;6.918;2023-04-03T05:35:25;6.50;;;2.67;;
13801;SDS011;6972;51.518;6.918;2023-04-03T05:37:51;6.90;;;2.47;;
13801;SDS011;6972;51.518;6.918;2023-04-03T05:42:53;7.57;;;2.47;;
13801;SDS011;6972;51.518;6.918;2023-04-03T05:45:19;7.27;;;2.67;;
13801;SDS011;6972;51.518;6.918;2023-04-03T05:47:45;5.97;;;2.33;;
13801;SDS011;6972;51.518;6.918;2023-04-03T05:52:38;8.87;;;2.67;;
13801;SDS011;6972;51.518;6.918;2023-04-03T05:55:05;8.90;;;2.70;;
13801;SDS011;6972;51.518;6.918;2023-04-03T05:57:32;5.57;;;2.40;;
13801;SDS011;6972;51.518;6.918;2023-04-03T05:59:58;5.43;;;2.60;;
13801;SDS011;6972;51.518;6.918;2023-04-03T06:07:35;7.97;;;2.47;;
13801;SDS011;6972;51.518;6.918;2023-04-03T06:12:36;5.53;;;2.33;;
13801;SDS011;6972;51.518;6.918;2023-04-03T06:25:25;9.17;;;2.57;;
13801;SDS011;6972;51.518;6.918;2023-04-03T06:27:51;6.60;;;2.43;;
13801;SDS011;6972;51.518;6.918;2023-04-03T06:30:21;7.00;;;2.97;;
13801;SDS011;6972;51.518;6.918;2023-04-03T06:37:59;8.43;;;2.47;;
13801;SDS011;6972;51.518;6.918;2023-04-03T07:35:14;8.27;;;2.40;;
13801;SDS011;6972;51.518;6.918;2023-04-03T07:37:45;7.17;;;2.37;;
13801;SDS011;6972;51.518;6.918;2023-04-03T07:42:50;6.97;;;2.43;;
13801;SDS011;6972;51.518;6.918;2023-04-03T07:45:16;4.13;;;1.90;;
13801;SDS011;6972;51.518;6.918;2023-04-03T07:47:45;9.60;;;2.43;;
13801;SDS011;6972;51.518;6.918;2023-04-03T08:31:59;7.10;;;2.20;;
13801;SDS011;6972;51.518;6.918;2023-04-03T08:34:25;9.30;;;2.33;;
13801;SDS011;6972;51.518;6.918;2023-04-03T08:42:05;6.20;;;2.20;;
13801;SDS011;6972;51.518;6.918;2023-04-03T09:38:32;4.47;;;1.80;;
13801;SDS011;6972;51.518;6.918;2023-04-03T10:16:01;4.10;;;1.67;;
13801;SDS011;6972;51.518;6.918;2023-04-03T11:03:16;3.87;;;1.67;;
13801;SDS011;6972;51.518;6.918;2023-04-03T11:08:46;3.83;;;1.60;;
13801;SDS011;6972;51.518;6.918;2023-04-03T11:11:31;4.67;;;1.70;;
13801;SDS011;6972;51.518;6.918;2023-04-03T11:14:42;4.63;;;1.40;;
13801;SDS011;6972;51.518;6.918;2023-04-03T11:20:47;6.63;;;1.90;;
13801;SDS011;6972;51.518;6.918;2023-04-03T11:23:54;3.23;;;1.60;;
13801;SDS011;6972;51.518;6.918;2023-04-03T11:42:14;4.27;;;1.40;;
13801;SDS011;6972;51.518;6.918;2023-04-03T12:05:43;8.83;;;2.50;;
13801;SDS011;6972;51.518;6.918;2023-04-03T12:08:28;4.10;;;1.50;;
13801;SDS011;6972;51.518;6.918;2023-04-03T12:13:34;5.47;;;1.77;;
13801;SDS011;6972;51.518;6.918;2023-04-03T12:16:03;3.83;;;1.93;;
13801;SDS011;6972;51.518;6.918;2023-04-03T12:46:15;8.40;;;1.50;;
13801;SDS011;6972;51.518;6.918;2023-04-03T12:51:28;2.40;;;1.43;;
13801;SDS011;6972;51.518;6.918;2023-04-03T12:54:13;4.40;;;1.90;;
13801;SDS011;6972;51.518;6.918;2023-04-03T12:56:40;4.93;;;1.60;;
13801;SDS011;6972;51.518;6.918;2023-04-03T12:59:20;5.93;;;1.70;;
13801;SDS011;6972;51.518;6.918;2023-04-03T13:04:22;4.03;;;1.63;;
13801;SDS011;6972;51.518;6.918;2023-04-03T13:06:49;5.57;;;1.97;;
13801;SDS011;6972;51.518;6.918;2023-04-03T13:12:01;2.57;;;1.40;;
13801;SDS011;6972;51.518;6.918;2023-04-03T13:14:38;3.67;;;1.47;;
13801;SDS011;6972;51.518;6.918;2023-04-03T13:17:16;3.63;;;1.60;;
13801;SDS011;6972;51.518;6.918;2023-04-03T13:19:44;2.93;;;1.70;;
13801;SDS011;6972;51.518;6.918;2023-04-03T13:24:59;2.97;;;1.53;;
13801;SDS011;6972;51.518;6.918;2023-04-03T13:27:32;2.87;;;1.60;;
13801;SDS011;6972;51.518;6.918;2023-04-03T13:29:59;2.63;;;1.20;;
13801;SDS011;6972;51.518;6.918;2023-04-03T13:32:31;3.47;;;1.40;;
13801;SDS011;6972;51.518;6.918;2023-04-03T13:34:57;4.40;;;1.53;;
13801;SDS011;6972;51.518;6.918;2023-04-03T13:37:28;2.20;;;1.60;;
13801;SDS011;6972;51.518;6.918;2023-04-03T13:39:57;3.80;;;1.70;;
13801;SDS011;6972;51.518;6.918;2023-04-03T13:42:33;3.83;;;1.57;;
13801;SDS011;6972;51.518;6.918;2023-04-03T13:47:51;2.60;;;1.60;;
13801;SDS011;6972;51.518;6.918;2023-04-03T13:52:47;3.03;;;1.67;;
13801;SDS011;6972;51.518;6.918;2023-04-03T13:55:25;5.10;;;1.73;;
13801;SDS011;6972;51.518;6.918;2023-04-03T14:05:48;4.97;;;1.83;;
13801;SDS011;6972;51.518;6.918;2023-04-03T14:08:15;3.63;;;1.77;;
13801;SDS011;6972;51.518;6.918;2023-04-03T14:10:41;4.13;;;1.63;;
13801;SDS011;6972;51.518;6.918;2023-04-03T14:13:09;3.73;;;1.43;;
13801;SDS011;6972;51.518;6.918;2023-04-03T14:15:40;5.33;;;1.50;;
13801;SDS011;6972;51.518;6.918;2023-04-03T14:18:09;3.60;;;1.50;;
13801;SDS011;6972;51.518;6.918;2023-04-03T14:20:36;3.70;;;1.70;;
13801;SDS011;6972;51.518;6.918;2023-04-03T14:23:02;2.53;;;1.60;;
13801;SDS011;6972;51.518;6.918;2023-04-03T14:25:29;4.40;;;1.80;;
13801;SDS011;6972;51.518;6.918;2023-04-03T14:27:54;5.47;;;1.63;;
13801;SDS011;6972;51.518;6.918;2023-04-03T14:30:25;4.23;;;1.83;;
13801;SDS011;6972;51.518;6.918;2023-04-03T14:32:56;3.77;;;1.60;;
13801;SDS011;6972;51.518;6.918;2023-04-03T14:35:22;5.70;;;1.60;;
13801;SDS011;6972;51.518;6.918;2023-04-03T14:37:49;3.50;;;1.80;;
13801;SDS011;6972;51.518;6.918;2023-04-03T14:40:22;3.40;;;1.43;;
13801;SDS011;6972;51.518;6.918;2023-04-03T14:42:50;4.63;;;1.60;;
13801;SDS011;6972;51.518;6.918;2023-04-03T14:45:20;3.70;;;1.60;;
13801;SDS011;6972;51.518;6.918;2023-04-03T14:47:47;2.93;;;1.50;;
13801;SDS011;6972;51.518;6.918;2023-04-03T14:50:18;4.83;;;1.60;;
13801;SDS011;6972;51.518;6.918;2023-04-03T14:55:23;4.50;;;1.73;;
13801;SDS011;6972;51.518;6.918;2023-04-03T14:57:51;3.10;;;1.40;;
13801;SDS011;6972;51.518;6.918;2023-04-03T15:00:19;2.67;;;1.50;;
13801;SDS011;6972;51.518;6.918;2023-04-03T15:05:22;3.13;;;1.60;;
13801;SDS011;6972;51.518;6.918;2023-04-03T15:07:57;6.30;;;1.83;;
13801;SDS011;6972;51.518;6.918;2023-04-03T15:10:26;6.10;;;1.90;;
13801;SDS011;6972;51.518;6.918;2023-04-03T15:12:54;6.23;;;1.70;;
13801;SDS011;6972;51.518;6.918;2023-04-03T15:15:21;4.47;;;1.70;;
13801;SDS011;6972;51.518;6.918;2023-04-03T15:17:49;5.70;;;2.00;;
13801;SDS011;6972;51.518;6.918;2023-04-03T15:20:21;5.43;;;1.70;;
13801;SDS011;6972;51.518;6.918;2023-04-03T15:22:48;3.73;;;1.70;;
13801;SDS011;6972;51.518;6.918;2023-04-03T15:25:14;4.07;;;1.50;;
13801;SDS011;6972;51.518;6.918;2023-04-03T15:27:41;5.53;;;2.20;;
13801;SDS011;6972;51.518;6.918;2023-04-03T15:30:14;8.57;;;1.70;;
13801;SDS011;6972;51.518;6.918;2023-04-03T15:32:43;3.77;;;1.70;;
13801;SDS011;6972;51.518;6.918;2023-04-03T15:35:09;5.53;;;1.60;;
13801;SDS011;6972;51.518;6.918;2023-04-03T15:37:35;2.73;;;1.57;;
13801;SDS011;6972;51.518;6.918;2023-04-03T15:40:04;3.30;;;1.50;;
13801;SDS011;6972;51.518;6.918;2023-04-03T15:42:31;4.83;;;2.10;;
13801;SDS011;6972;51.518;6.918;2023-04-03T15:44:57;6.37;;;2.63;;
13801;SDS011;6972;51.518;6.918;2023-04-03T15:47:22;6.50;;;2.17;;
13801;SDS011;6972;51.518;6.918;2023-04-03T15:49:49;4.33;;;1.40;;
13801;SDS011;6972;51.518;6.918;2023-04-03T15:52:15;4.32;;;2.15;;
13801;SDS011;6972;51.518;6.918;2023-04-03T15:54:41;5.00;;;1.50;;
13801;SDS011;6972;51.518;6.918;2023-04-03T15:57:07;6.35;;;2.38;;
13801;SDS011;6972;51.518;6.918;2023-04-03T15:59:33;4.63;;;2.50;;
13801;SDS011;6972;51.518;6.918;2023-04-03T16:01:59;4.03;;;1.80;;
13801;SDS011;6972;51.518;6.918;2023-04-03T16:04:28;5.60;;;2.55;;
13801;SDS011;6972;51.518;6.918;2023-04-03T16:06:54;6.55;;;2.60;;
13801;SDS011;6972;51.518;6.918;2023-04-03T16:09:20;4.35;;;2.00;;
13801;SDS011;6972;51.518;6.918;2023-04-03T16:11:46;2.85;;;1.88;;
13801;SDS011;6972;51.518;6.918;2023-04-03T16:14:12;3.85;;;1.92;;
13801;SDS011;6972;51.518;6.918;2023-04-03T16:16:38;5.03;;;2.13;;
13801;SDS011;6972;51.518;6.918;2023-04-03T16:19:04;3.55;;;1.80;;
13801;SDS011;6972;51.518;6.918;2023-04-03T16:21:31;4.85;;;2.30;;
13801;SDS011;6972;51.518;6.918;2023-04-03T16:23:58;4.72;;;2.00;;
13801;SDS011;6972;51.518;6.918;2023-04-03T16:26:24;6.10;;;1.73;;
13801;SDS011;6972;51.518;6.918;2023-04-03T16:28:51;3.50;;;1.58;;
13801;SDS011;6972;51.518;6.918;2023-04-03T16:31:17;5.90;;;1.83;;
13801;SDS011;6972;51.518;6.918;2023-04-03T16:33:43;2.83;;;1.50;;
13801;SDS011;6972;51.518;6.918;2023-04-03T16:36:09;5.07;;;2.10;;
13801;SDS011;6972;51.518;6.918;2023-04-03T16:38:35;6.17;;;1.93;;
13801;SDS011;6972;51.518;6.918;2023-04-03T16:48:53;6.03;;;1.67;;
13801;SDS011;6972;51.518;6.918;2023-04-03T16:51:18;5.70;;;2.00;;
13801;SDS011;6972;51.518;6.918;2023-04-03T16:53:45;6.90;;;1.87;;
13801;SDS011;6972;51.518;6.918;2023-04-03T17:03:58;3.37;;;1.73;;
13801;SDS011;6972;51.518;6.918;2023-04-03T17:12:16;3.70;;;1.80;;
13801;SDS011;6972;51.518;6.918;2023-04-03T17:14:43;5.23;;;1.83;;
13801;SDS011;6972;51.518;6.918;2023-04-03T17:17:29;5.00;;;1.90;;
13801;SDS011;6972;51.518;6.918;2023-04-03T17:22:31;4.83;;;1.80;;
13801;SDS011;6972;51.518;6.918;2023-04-03T17:40:13;5.60;;;1.73;;
13801;SDS011;6972;51.518;6.918;2023-04-03T17:45:05;4.53;;;1.83;;
13801;SDS011;6972;51.518;6.918;2023-04-03T18:13:27;9.70;;;2.23;;
13801;SDS011;6972;51.518;6.918;2023-04-03T18:15:53;3.83;;;1.80;;
13801;SDS011;6972;51.518;6.918;2023-04-03T18:18:20;4.10;;;1.80;;
13801;SDS011;6972;51.518;6.918;2023-04-03T18:20:46;6.17;;;2.00;;
13801;SDS011;6972;51.518;6.918;2023-04-03T18:33:31;4.63;;;2.37;;
13801;SDS011;6972;51.518;6.918;2023-04-03T18:38:33;6.30;;;2.20;;
13801;SDS011;6972;51.518;6.918;2023-04-03T18:40:59;3.53;;;1.87;;
13801;SDS011;6972;51.518;6.918;2023-04-03T18:43:28;4.03;;;1.87;;
13801;SDS011;6972;51.518;6.918;2023-04-03T18:45:54;4.20;;;2.20;;
13801;SDS011;6972;51.518;6.918;2023-04-03T19:39:58;4.17;;;1.93;;
13801;SDS011;6972;51.518;6.918;2023-04-03T19:45:00;4.27;;;2.30;;
13801;SDS011;6972;51.518;6.918;2023-04-03T19:50:02;4.33;;;2.10;;
13801;SDS011;6972;51.518;6.918;2023-04-03T20:10:28;5.43;;;2.87;;
13801;SDS011;6972;51.518;6.918;2023-04-03T20:12:55;5.83;;;2.40;;
13801;SDS011;6972;51.518;6.918;2023-04-03T20:15:24;6.47;;;2.33;;
13801;SDS011;6972;51.518;6.918;2023-04-03T20:21:02;5.07;;;2.50;;
13801;SDS011;6972;51.518;6.918;2023-04-03T20:54:34;5.33;;;2.47;;
13801;SDS011;6972;51.518;6.918;2023-04-03T20:57:01;7.57;;;2.57;;
13801;SDS011;6972;51.518;6.918;2023-04-03T21:30:35;6.53;;;2.43;;
13801;SDS011;6972;51.518;6.918;2023-04-03T21:40:56;8.00;;;2.97;;
13801;SDS011;6972;51.518;6.918;2023-04-03T21:43:22;9.80;;;2.70;;
13801;SDS011;6972;51.518;6.918;2023-04-03T21:45:53;5.70;;;2.67;;
13801;SDS011;6972;51.518;6.918;2023-04-03T22:03:57;7.43;;;2.57;;
13801;SDS011;6972;51.518;6.918;2023-04-03T22:06:23;5.83;;;2.30;;
13801;SDS011;6972;51.518;6.918;2023-04-03T22:08:50;4.03;;;2.13;;
13801;SDS011;6972;51.518;6.918;2023-04-03T22:11:16;5.20;;;2.50;;
13801;SDS011;6972;51.518;6.918;2023-04-03T22:16:29;6.47;;;2.30;;
13801;SDS011;6972;51.518;6.918;2023-04-03T22:19:10;6.57;;;2.33;;
13801;SDS011;6972;51.518;6.918;2023-04-03T22:24:13;6.80;;;2.30;;
13801;SDS011;6972;51.518;6.918;2023-04-03T22:26:42;8.43;;;2.93;;
13801;SDS011;6972;51.518;6.918;2023-04-03T22:29:08;5.10;;;2.30;;
13801;SDS011;6972;51.518;6.918;2023-04-03T22:31:34;4.77;;;2.27;;
13801;SDS011;6972;51.518;6.918;2023-04-03T22:34:05;5.77;;;2.80;;
13801;SDS011;6972;51.518;6.918;2023-04-03T22:36:33;10.60;;;2.97;;
13801;SDS011;6972;51.518;6.918;2023-04-03T22:39:00;9.77;;;3.10;;
13801;SDS011;6972;51.518;6.918;2023-04-03T22:41:28;6.30;;;2.60;;
13801;SDS011;6972;51.518;6.918;2023-04-03T22:52:11;8.97;;;3.27;;
13801;SDS011;6972;51.518;6.918;2023-04-03T22:54:41;9.97;;;3.00;;
13801;SDS011;6972;51.518;6.918;2023-04-03T22:57:08;5.13;;;2.77;;
13801;SDS011;6972;51.518;6.918;2023-04-03T22:59:37;6.63;;;3.00;;
13801;SDS011;6972;51.518;6.918;2023-04-03T23:02:03;5.23;;;2.77;;
13801;SDS011;6972;51.518;6.918;2023-04-03T23:09:42;6.83;;;2.83;;
13801;SDS011;6972;51.518;6.918;2023-04-03T23:22:26;5.50;;;2.90;;
13801;SDS011;6972;51.518;6.918;2023-04-03T23:24:52;11.00;;;2.93;;
13801;SDS011;6972;51.518;6.918;2023-04-03T23:27:18;11.90;;;3.30;;
13801;SDS011;6972;51.518;6.918;2023-04-03T23:32:20;7.90;;;2.87;;
13801;SDS011;6972;51.518;6.918;2023-04-03T23:34:46;4.67;;;2.60;;
13801;SDS011;6972;51.518;6.918;2023-04-03T23:39:47;7.53;;;2.90;;
13801;SDS011;6972;51.518;6.918;2023-04-03T23:42:13;12.00;;;3.40;;
13801;SDS011;6972;51.518;6.918;2023-04-03T23:44:42;6.07;;;2.93;;
13801;SDS011;6972;51.518;6.918;2023-04-03T23:52:19;7.80;;;3.37;;
